createdAt,value
2019-04-29T00:00:33.301Z,1.40
2019-04-29T00:02:44.238Z,1.53
2019-04-29T00:04:55.225Z,3.50
2019-04-29T00:07:06.621Z,2.60
2019-04-29T00:09:18.710Z,2.57
2019-04-29T00:11:31.486Z,3.17
2019-04-29T00:13:42.426Z,2.30
2019-04-29T00:15:57.893Z,1.87
2019-04-29T00:18:19.643Z,1.93
2019-04-29T00:20:32.484Z,5.07
2019-04-29T00:22:43.353Z,2.77
2019-04-29T00:24:54.229Z,2.70
2019-04-29T00:27:05.462Z,1.43
2019-04-29T00:29:16.498Z,2.00
2019-04-29T00:31:27.593Z,3.40
2019-04-29T00:33:38.639Z,2.10
2019-04-29T00:35:49.799Z,2.23
2019-04-29T00:38:11.424Z,2.47
2019-04-29T00:40:42.797Z,3.07
2019-04-29T00:42:58.741Z,2.90
2019-04-29T00:45:10.075Z,3.60
2019-04-29T00:47:21.184Z,1.70
2019-04-29T00:49:32.182Z,2.07
2019-04-29T00:51:43.140Z,3.57
2019-04-29T00:53:56.080Z,4.77
2019-04-29T00:56:07.029Z,2.43
2019-04-29T00:58:18.007Z,2.57
2019-04-29T01:00:31.502Z,2.67
2019-04-29T01:02:42.410Z,5.37
2019-04-29T01:04:53.300Z,2.00
2019-04-29T01:07:06.063Z,1.83
2019-04-29T01:09:17.814Z,3.33
2019-04-29T01:11:28.880Z,2.10
2019-04-29T01:13:39.925Z,1.50
2019-04-29T01:15:50.923Z,2.07
2019-04-29T01:18:02.102Z,2.37
2019-04-29T01:20:13.156Z,2.00
2019-04-29T01:22:24.017Z,2.73
2019-04-29T01:24:35.176Z,3.43
2019-04-29T01:26:55.572Z,5.43
2019-04-29T01:29:08.495Z,2.27
2019-04-29T01:31:21.407Z,2.40
2019-04-29T01:33:32.253Z,2.30
2019-04-29T01:35:43.227Z,4.20
2019-04-29T01:37:54.180Z,4.10
2019-04-29T01:40:08.253Z,2.97
2019-04-29T01:42:21.005Z,4.97
2019-04-29T01:44:33.596Z,5.07
2019-04-29T01:46:44.586Z,2.87
2019-04-29T01:48:55.840Z,2.27
2019-04-29T01:51:06.811Z,1.67
2019-04-29T01:53:17.695Z,2.97
2019-04-29T01:55:28.718Z,1.87
2019-04-29T01:57:39.795Z,1.30
2019-04-29T01:59:50.782Z,2.63
2019-04-29T02:02:01.678Z,2.03
2019-04-29T02:04:12.630Z,2.20
2019-04-29T02:06:23.515Z,3.20
2019-04-29T02:08:34.379Z,2.97
2019-04-29T02:10:45.251Z,2.33
2019-04-29T02:12:56.214Z,4.00
2019-04-29T02:15:07.288Z,2.20
2019-04-29T02:17:18.238Z,3.40
2019-04-29T02:19:29.104Z,2.73
2019-04-29T02:21:41.990Z,2.63
2019-04-29T02:23:57.457Z,2.00
2019-04-29T02:26:08.404Z,2.60
2019-04-29T02:28:19.400Z,5.23
2019-04-29T02:30:46.576Z,3.50
2019-04-29T02:32:57.456Z,3.20
2019-04-29T02:35:08.317Z,2.93
2019-04-29T02:37:23.930Z,2.33
2019-04-29T02:39:53.116Z,4.50
2019-04-29T02:42:22.972Z,3.83
2019-04-29T02:44:33.933Z,1.93
2019-04-29T02:46:44.880Z,2.57
2019-04-29T02:48:55.764Z,2.97
2019-04-29T02:51:06.756Z,2.70
2019-04-29T02:53:17.767Z,2.73
2019-04-29T02:55:30.516Z,2.83
2019-04-29T02:57:46.017Z,2.10
2019-04-29T03:00:15.631Z,3.07
2019-04-29T03:02:28.489Z,1.90
2019-04-29T03:04:57.996Z,2.87
2019-04-29T03:07:09.094Z,2.10
2019-04-29T03:09:20.086Z,3.60
2019-04-29T03:11:31.048Z,3.27
2019-04-29T03:13:42.011Z,2.80
2019-04-29T03:15:53.064Z,2.73
2019-04-29T03:18:04.100Z,3.57
2019-04-29T03:20:19.777Z,3.33
2019-04-29T03:22:30.794Z,2.63
2019-04-29T03:24:41.714Z,1.90
2019-04-29T03:26:52.664Z,4.03
2019-04-29T03:29:05.543Z,2.40
2019-04-29T03:31:16.515Z,2.97
2019-04-29T03:33:27.472Z,4.93
2019-04-29T03:35:38.346Z,3.47
2019-04-29T03:37:49.290Z,3.37
2019-04-29T03:40:00.302Z,3.20
2019-04-29T03:42:11.251Z,4.13
2019-04-29T03:44:22.127Z,2.97
2019-04-29T03:46:33.084Z,2.97
2019-04-29T03:48:44.183Z,3.07
2019-04-29T03:50:55.020Z,6.00
2019-04-29T03:53:06.183Z,3.57
2019-04-29T03:55:17.211Z,3.93
2019-04-29T03:57:29.961Z,3.57
2019-04-29T03:59:41.018Z,4.00
2019-04-29T04:01:56.697Z,4.60
2019-04-29T04:04:09.586Z,3.13
2019-04-29T04:06:22.469Z,4.07
2019-04-29T04:08:37.981Z,4.00
2019-04-29T04:10:49.079Z,4.00
2019-04-29T04:12:59.924Z,5.80
2019-04-29T04:15:10.944Z,3.87
2019-04-29T04:17:32.669Z,4.03
2019-04-29T04:19:44.187Z,4.37
2019-04-29T04:21:55.132Z,5.23
2019-04-29T04:24:06.078Z,3.70
2019-04-29T04:26:17.345Z,3.83
2019-04-29T04:28:28.394Z,4.00
2019-04-29T04:30:39.620Z,5.73
2019-04-29T04:32:50.502Z,4.90
2019-04-29T04:35:01.526Z,4.87
2019-04-29T04:37:12.394Z,6.13
2019-04-29T04:39:24.434Z,4.53
2019-04-29T04:41:35.418Z,7.00
2019-04-29T04:43:46.404Z,6.30
2019-04-29T04:45:57.313Z,5.73
2019-04-29T04:48:08.128Z,6.60
2019-04-29T04:50:19.171Z,6.60
2019-04-29T04:52:30.050Z,6.57
2019-04-29T04:54:41.697Z,5.60
2019-04-29T04:56:52.566Z,7.10
2019-04-29T04:59:03.526Z,7.47
2019-04-29T05:01:14.424Z,8.50
2019-04-29T05:03:25.271Z,8.00
2019-04-29T05:05:36.152Z,8.50
2019-04-29T05:07:46.990Z,6.50
2019-04-29T05:09:57.853Z,7.20
2019-04-29T05:12:08.744Z,6.60
2019-04-29T05:14:19.714Z,6.03
2019-04-29T05:16:30.614Z,7.13
2019-04-29T05:18:41.461Z,10.90
2019-04-29T05:20:52.425Z,8.70
2019-04-29T05:23:03.383Z,10.30
2019-04-29T05:25:14.229Z,8.03
2019-04-29T05:27:25.268Z,8.50
2019-04-29T05:29:36.242Z,8.10
2019-04-29T05:31:47.187Z,7.40
2019-04-29T05:33:59.925Z,8.60
2019-04-29T05:36:12.693Z,8.93
2019-04-29T05:38:25.554Z,6.97
2019-04-29T05:40:38.299Z,8.20
2019-04-29T05:42:52.493Z,9.60
2019-04-29T05:45:06.590Z,8.03
2019-04-29T05:47:22.202Z,7.03
2019-04-29T05:49:37.479Z,8.20
2019-04-29T05:52:03.168Z,7.33
2019-04-29T05:54:18.872Z,7.20
2019-04-29T05:56:29.837Z,8.30
2019-04-29T05:58:40.699Z,8.57
2019-04-29T06:00:56.648Z,9.70
2019-04-29T06:03:07.705Z,7.77
2019-04-29T06:05:18.660Z,7.40
2019-04-29T06:07:29.519Z,7.87
2019-04-29T06:09:40.403Z,8.30
2019-04-29T06:11:51.299Z,8.23
2019-04-29T06:14:04.065Z,8.70
2019-04-29T06:16:15.878Z,8.63
2019-04-29T06:18:27.673Z,9.83
2019-04-29T06:20:38.611Z,8.07
2019-04-29T06:22:49.472Z,9.50
2019-04-29T06:25:00.442Z,6.83
2019-04-29T06:27:11.266Z,8.50
2019-04-29T06:29:24.047Z,6.47
2019-04-29T06:31:34.987Z,6.50
2019-04-29T06:33:45.954Z,5.93
2019-04-29T06:35:57.238Z,8.47
2019-04-29T06:38:08.130Z,5.53
2019-04-29T06:40:19.082Z,9.63
2019-04-29T06:42:29.976Z,7.00
2019-04-29T06:44:44.327Z,6.00
2019-04-29T06:46:54.426Z,7.07
2019-04-29T06:49:10.398Z,5.87
2019-04-29T06:51:19.282Z,6.17
2019-04-29T06:53:32.077Z,5.70
2019-04-29T06:55:43.053Z,8.57
2019-04-29T06:57:53.880Z,8.63
2019-04-29T07:00:05.454Z,6.90
2019-04-29T07:02:16.311Z,6.67
2019-04-29T07:04:30.639Z,6.77
2019-04-29T07:06:39.989Z,6.67
2019-04-29T07:08:50.850Z,6.80
2019-04-29T07:11:03.038Z,8.07
2019-04-29T07:13:18.037Z,7.63
2019-04-29T07:15:26.834Z,8.10
2019-04-29T07:17:41.305Z,7.93
2019-04-29T07:19:50.466Z,9.03
2019-04-29T07:22:01.414Z,7.23
2019-04-29T07:24:12.288Z,7.87
2019-04-29T07:26:24.672Z,10.53
2019-04-29T07:28:35.504Z,9.07
2019-04-29T07:31:01.254Z,11.13
2019-04-29T07:32:59.164Z,9.43
2019-04-29T07:35:11.475Z,9.37
2019-04-29T07:37:22.481Z,10.83
2019-04-29T07:39:33.535Z,10.17
2019-04-29T07:41:44.482Z,10.17
2019-04-29T07:43:55.323Z,11.07
2019-04-29T07:46:08.088Z,10.50
2019-04-29T07:48:18.968Z,10.17
2019-04-29T07:50:29.826Z,13.47
2019-04-29T07:52:40.669Z,10.93
2019-04-29T07:54:55.097Z,12.70
2019-04-29T07:57:04.347Z,11.80
2019-04-29T07:59:15.290Z,10.77
2019-04-29T08:01:26.417Z,12.03
2019-04-29T08:03:37.491Z,11.63
2019-04-29T08:05:50.171Z,11.63
2019-04-29T08:08:01.131Z,11.70
2019-04-29T08:10:23.437Z,10.90
2019-04-29T08:12:25.693Z,11.70
2019-04-29T08:14:37.149Z,11.43
2019-04-29T08:16:48.029Z,11.33
2019-04-29T08:19:00.800Z,12.10
2019-04-29T08:21:14.470Z,10.97
2019-04-29T08:23:24.587Z,11.43
2019-04-29T08:25:35.416Z,10.40
2019-04-29T08:27:46.284Z,10.13
2019-04-29T08:29:57.126Z,12.93
2019-04-29T08:32:07.993Z,9.33
2019-04-29T08:34:22.983Z,9.83
2019-04-29T08:36:33.535Z,8.93
2019-04-29T08:38:44.472Z,9.80
2019-04-29T08:40:55.369Z,8.83
2019-04-29T08:43:20.608Z,8.83
2019-04-29T08:45:34.699Z,8.20
2019-04-29T08:47:52.291Z,9.57
2019-04-29T08:50:04.591Z,9.07
2019-04-29T08:52:15.466Z,8.27
2019-04-29T08:54:26.361Z,8.27
2019-04-29T08:56:42.457Z,8.43
2019-04-29T08:58:51.140Z,9.53
2019-04-29T09:01:02.223Z,8.13
2019-04-29T09:03:13.179Z,8.87
2019-04-29T09:05:24.122Z,8.33
2019-04-29T09:07:34.971Z,8.27
2019-04-29T09:09:48.447Z,8.40
2019-04-29T09:11:58.813Z,8.73
2019-04-29T09:14:12.930Z,7.67
2019-04-29T09:16:22.534Z,9.47
2019-04-29T09:18:33.391Z,8.07
2019-04-29T09:20:44.238Z,8.07
2019-04-29T09:22:57.131Z,7.27
2019-04-29T09:25:21.347Z,8.23
2019-04-29T09:27:33.163Z,6.80
2019-04-29T09:29:46.405Z,6.50
2019-04-29T09:31:56.985Z,6.63
2019-04-29T09:34:07.834Z,7.43
2019-04-29T09:36:18.681Z,7.20
2019-04-29T09:38:32.444Z,8.70
2019-04-29T09:40:45.765Z,7.40
2019-04-29T09:43:15.301Z,7.13
2019-04-29T09:45:25.311Z,8.30
2019-04-29T09:47:36.354Z,9.30
2019-04-29T09:49:47.244Z,9.57
2019-04-29T09:51:58.142Z,7.53
2019-04-29T09:54:09.604Z,8.10
2019-04-29T09:56:22.070Z,7.60
2019-04-29T09:58:32.921Z,7.33
2019-04-29T10:00:48.783Z,10.00
2019-04-29T10:03:04.318Z,7.27
2019-04-29T10:05:29.085Z,7.27
2019-04-29T10:07:39.909Z,8.43
2019-04-29T10:09:57.532Z,6.87
2019-04-29T10:12:03.746Z,7.70
2019-04-29T10:14:14.937Z,6.13
2019-04-29T10:16:44.528Z,6.60
2019-04-29T10:19:00.599Z,7.93
2019-04-29T10:21:20.682Z,9.17
2019-04-29T10:23:27.832Z,7.90
2019-04-29T10:25:38.707Z,9.00
2019-04-29T10:27:49.644Z,7.40
2019-04-29T10:30:00.606Z,7.50
2019-04-29T10:32:11.546Z,9.00
2019-04-29T10:34:22.491Z,6.40
2019-04-29T10:36:33.473Z,7.90
2019-04-29T10:38:45.937Z,7.10
2019-04-29T10:41:04.561Z,8.33
2019-04-29T10:43:17.367Z,7.53
2019-04-29T10:45:40.552Z,10.50
2019-04-29T10:48:05.445Z,7.47
2019-04-29T10:50:18.924Z,8.70
2019-04-29T10:52:29.923Z,8.40
2019-04-29T10:54:42.714Z,7.43
2019-04-29T10:56:53.678Z,7.03
2019-04-29T10:59:09.117Z,8.87
2019-04-29T11:01:24.117Z,9.10
2019-04-29T11:03:34.999Z,10.73
2019-04-29T11:05:59.928Z,9.67
2019-04-29T11:08:02.500Z,8.50
2019-04-29T11:10:25.037Z,8.93
2019-04-29T11:12:30.147Z,8.70
2019-04-29T11:14:41.180Z,7.30
2019-04-29T11:16:52.345Z,7.33
2019-04-29T11:19:05.510Z,8.00
2019-04-29T11:21:16.069Z,7.57
2019-04-29T11:23:43.968Z,7.47
2019-04-29T11:26:13.674Z,8.67
2019-04-29T11:28:25.222Z,6.53
2019-04-29T11:30:39.494Z,12.30
2019-04-29T11:33:07.825Z,7.33
2019-04-29T11:35:24.586Z,8.17
2019-04-29T11:37:36.097Z,10.47
2019-04-29T11:39:50.336Z,7.40
2019-04-29T11:42:01.582Z,9.30
2019-04-29T11:44:12.816Z,10.07
2019-04-29T11:46:23.683Z,6.80
2019-04-29T11:48:34.645Z,9.23
2019-04-29T11:50:59.591Z,9.13
2019-04-29T11:53:12.382Z,6.60
2019-04-29T11:55:23.329Z,6.93
2019-04-29T11:57:45.379Z,7.53
2019-04-29T11:59:58.155Z,8.40
2019-04-29T12:02:16.712Z,6.57
2019-04-29T12:04:33.526Z,6.87
2019-04-29T12:06:42.308Z,5.47
2019-04-29T12:08:55.120Z,6.00
2019-04-29T12:11:07.523Z,6.63
2019-04-29T12:13:27.114Z,7.00
2019-04-29T12:15:35.118Z,8.90
2019-04-29T12:17:47.917Z,8.57
2019-04-29T12:20:15.780Z,6.43
2019-04-29T12:22:30.689Z,7.23
2019-04-29T12:24:39.477Z,11.67
2019-04-29T12:26:50.349Z,8.90
2019-04-29T12:29:03.233Z,8.10
2019-04-29T12:31:18.705Z,6.87
2019-04-29T12:33:36.925Z,7.20
2019-04-29T12:35:58.565Z,5.67
2019-04-29T12:38:24.923Z,6.40
2019-04-29T12:40:50.207Z,5.67
2019-04-29T12:43:18.335Z,5.37
2019-04-29T12:45:37.112Z,6.90
2019-04-29T12:47:48.106Z,7.17
2019-04-29T12:49:59.069Z,5.80
2019-04-29T12:52:10.005Z,4.97
2019-04-29T12:54:20.885Z,4.97
2019-04-29T12:56:33.675Z,5.73
2019-04-29T12:58:50.217Z,4.80
2019-04-29T13:01:05.869Z,4.87
2019-04-29T13:03:39.543Z,6.70
2019-04-29T13:06:02.253Z,6.53
2019-04-29T13:08:16.878Z,5.57
2019-04-29T13:10:37.789Z,6.40
2019-04-29T13:12:48.418Z,10.27
2019-04-29T13:15:07.991Z,5.97
2019-04-29T13:17:34.092Z,7.07
2019-04-29T13:20:01.678Z,6.13
2019-04-29T13:22:05.572Z,5.33
2019-04-29T13:24:23.461Z,6.27
2019-04-29T13:26:33.326Z,6.63
2019-04-29T13:28:58.950Z,6.00
2019-04-29T13:30:56.882Z,5.53
2019-04-29T13:33:16.359Z,5.13
2019-04-29T13:35:20.749Z,8.20
2019-04-29T13:37:31.688Z,9.63
2019-04-29T13:39:42.647Z,5.57
2019-04-29T13:41:57.758Z,5.30
2019-04-29T13:44:07.534Z,6.57
2019-04-29T13:46:20.819Z,8.83
2019-04-29T13:48:55.324Z,7.27
2019-04-29T13:50:54.475Z,8.30
2019-04-29T13:53:05.475Z,7.53
2019-04-29T13:55:46.145Z,6.63
2019-04-29T13:57:31.083Z,6.13
2019-04-29T13:59:56.185Z,7.07
2019-04-29T14:02:09.037Z,6.70
2019-04-29T14:04:24.842Z,5.70
2019-04-29T14:06:36.489Z,7.03
2019-04-29T14:08:47.320Z,10.33
2019-04-29T14:10:58.210Z,9.00
2019-04-29T14:13:13.427Z,7.53
2019-04-29T14:15:22.348Z,10.60
2019-04-29T14:17:35.610Z,5.90
2019-04-29T14:19:46.048Z,8.07
2019-04-29T14:21:57.023Z,6.03
2019-04-29T14:24:07.912Z,10.27
2019-04-29T14:26:18.882Z,8.37
2019-04-29T14:28:29.850Z,8.43
2019-04-29T14:30:43.587Z,7.40
2019-04-29T14:32:55.614Z,6.50
2019-04-29T14:35:19.618Z,7.43
2019-04-29T14:37:30.493Z,8.43
2019-04-29T14:39:41.437Z,7.77
2019-04-29T14:41:56.490Z,8.87
2019-04-29T14:44:09.696Z,6.60
2019-04-29T14:46:22.669Z,7.00
2019-04-29T14:48:42.501Z,5.47
2019-04-29T14:50:49.557Z,4.57
2019-04-29T14:53:01.641Z,8.13
2019-04-29T14:55:14.878Z,7.10
2019-04-29T14:57:25.739Z,4.73
2019-04-29T14:59:36.848Z,7.90
2019-04-29T15:01:49.831Z,7.37
2019-04-29T15:04:18.430Z,7.13
2019-04-29T15:06:24.398Z,8.37
2019-04-29T15:08:36.239Z,5.47
2019-04-29T15:10:49.485Z,4.50
2019-04-29T15:13:19.770Z,6.57
2019-04-29T15:15:17.076Z,6.53
2019-04-29T15:17:35.395Z,4.80
2019-04-29T15:19:50.326Z,6.70
2019-04-29T15:22:03.014Z,6.80
2019-04-29T15:24:17.143Z,5.93
2019-04-29T15:26:26.894Z,6.67
2019-04-29T15:28:39.683Z,6.10
2019-04-29T15:30:50.541Z,3.80
2019-04-29T15:33:01.512Z,4.40
2019-04-29T15:35:12.665Z,3.90
2019-04-29T15:37:23.577Z,4.97
2019-04-29T15:39:36.331Z,4.47
2019-04-29T15:41:47.201Z,4.07
2019-04-29T15:44:06.929Z,5.10
2019-04-29T15:46:11.524Z,3.70
2019-04-29T15:48:23.622Z,3.30
2019-04-29T15:50:37.078Z,4.90
2019-04-29T15:52:47.316Z,3.23
2019-04-29T15:54:58.238Z,5.03
2019-04-29T15:57:14.838Z,3.03
2019-04-29T15:59:22.214Z,5.37
2019-04-29T16:01:33.244Z,4.37
2019-04-29T16:03:44.342Z,3.40
2019-04-29T16:06:20.939Z,4.50
2019-04-29T16:08:44.168Z,6.40
2019-04-29T16:10:59.881Z,5.40
2019-04-29T16:13:12.140Z,4.70
2019-04-29T16:15:23.122Z,5.97
2019-04-29T16:17:38.380Z,6.33
2019-04-29T16:19:46.769Z,4.03
2019-04-29T16:21:57.709Z,6.53
2019-04-29T16:24:25.064Z,3.50
2019-04-29T16:26:24.996Z,7.37
2019-04-29T16:28:39.516Z,3.63
2019-04-29T16:30:46.981Z,5.53
2019-04-29T16:32:58.092Z,4.00
2019-04-29T16:35:09.185Z,5.17
2019-04-29T16:37:24.848Z,4.37
2019-04-29T16:39:33.030Z,4.43
2019-04-29T16:41:51.025Z,3.60
2019-04-29T16:43:59.225Z,5.20
2019-04-29T16:46:12.013Z,6.53
2019-04-29T16:48:22.919Z,5.60
2019-04-29T16:50:34.099Z,3.57
2019-04-29T16:52:45.047Z,5.43
2019-04-29T16:54:59.012Z,6.53
2019-04-29T16:57:08.858Z,3.57
2019-04-29T16:59:19.929Z,6.27
2019-04-29T17:01:31.011Z,4.40
2019-04-29T17:03:42.346Z,5.57
2019-04-29T17:05:53.350Z,6.30
2019-04-29T17:08:09.321Z,5.70
2019-04-29T17:10:19.958Z,6.13
2019-04-29T17:12:38.603Z,5.50
2019-04-29T17:15:04.150Z,4.80
2019-04-29T17:17:04.428Z,6.97
2019-04-29T17:19:15.287Z,5.83
2019-04-29T17:21:26.200Z,5.83
2019-04-29T17:23:37.123Z,5.33
2019-04-29T17:25:48.259Z,7.53
2019-04-29T17:28:11.792Z,5.93
2019-04-29T17:30:46.693Z,6.93
2019-04-29T17:33:10.368Z,6.40
2019-04-29T17:37:34.317Z,6.90
2019-04-29T17:39:45.194Z,5.73
2019-04-29T17:41:57.632Z,7.00
2019-04-29T17:44:14.609Z,6.50
2019-04-29T17:46:44.743Z,10.37
2019-04-29T17:49:00.287Z,6.10
2019-04-29T17:51:12.199Z,5.10
2019-04-29T17:53:25.227Z,9.47
2019-04-29T17:55:40.859Z,6.07
2019-04-29T17:57:54.483Z,7.40
2019-04-29T18:00:10.224Z,7.93
2019-04-29T18:02:32.214Z,7.73
2019-04-29T18:04:57.270Z,7.83
2019-04-29T18:07:17.963Z,5.77
2019-04-29T18:09:33.709Z,7.80
2019-04-29T18:11:51.604Z,6.97
2019-04-29T18:13:58.127Z,8.77
2019-04-29T18:16:18.091Z,7.67
2019-04-29T18:18:46.626Z,7.07
2019-04-29T18:21:11.871Z,8.30
2019-04-29T18:23:30.465Z,8.03
2019-04-29T18:26:01.595Z,10.73
2019-04-29T18:28:12.567Z,8.10
2019-04-29T18:30:35.512Z,7.53
2019-04-29T18:32:42.146Z,11.93
2019-04-29T18:34:51.033Z,9.40
2019-04-29T18:37:01.890Z,9.10
2019-04-29T18:39:20.141Z,8.50
2019-04-29T18:41:29.533Z,8.50
2019-04-29T18:43:40.454Z,10.13
2019-04-29T18:45:56.220Z,9.00
2019-04-29T18:48:04.249Z,6.73
2019-04-29T18:50:15.870Z,9.97
2019-04-29T18:52:28.534Z,7.90
2019-04-29T18:54:39.675Z,8.07
2019-04-29T18:56:50.552Z,10.43
2019-04-29T18:59:01.554Z,12.07
2019-04-29T19:01:12.529Z,9.43
2019-04-29T19:03:29.749Z,8.87
2019-04-29T19:05:45.306Z,9.17
2019-04-29T19:08:10.909Z,9.30
2019-04-29T19:10:14.354Z,7.73
2019-04-29T19:12:22.601Z,7.47
2019-04-29T19:14:35.291Z,8.80
2019-04-29T19:16:46.409Z,10.70
2019-04-29T19:19:01.593Z,10.50
2019-04-29T19:21:10.181Z,8.53
2019-04-29T19:23:24.952Z,9.03
2019-04-29T19:25:36.261Z,9.20
2019-04-29T19:27:47.238Z,9.60
2019-04-29T19:29:58.133Z,10.17
2019-04-29T19:32:09.072Z,8.73
2019-04-29T19:34:20.027Z,8.57
2019-04-29T19:36:30.904Z,7.20
2019-04-29T19:38:43.348Z,12.27
2019-04-29T19:40:54.648Z,10.00
2019-04-29T19:43:06.109Z,11.07
2019-04-29T19:45:17.583Z,12.77
2019-04-29T19:47:28.615Z,12.20
2019-04-29T19:49:42.851Z,8.77
2019-04-29T19:51:52.253Z,10.27
2019-04-29T19:54:05.090Z,9.47
2019-04-29T19:56:21.037Z,9.93
2019-04-29T19:58:31.307Z,9.13
2019-04-29T20:00:42.336Z,9.90
2019-04-29T20:02:53.960Z,9.60
2019-04-29T20:05:16.131Z,9.43
2019-04-29T20:07:28.055Z,8.63
2019-04-29T20:09:40.521Z,8.07
2019-04-29T20:11:52.475Z,9.73
2019-04-29T20:14:06.401Z,8.93
2019-04-29T20:16:40.069Z,10.97
2019-04-29T20:19:00.911Z,9.70
2019-04-29T20:21:20.848Z,10.93
2019-04-29T20:23:28.052Z,11.00
2019-04-29T20:25:39.393Z,9.60
2019-04-29T20:28:02.835Z,9.57
2019-04-29T20:30:15.690Z,12.17
2019-04-29T20:32:22.585Z,9.50
2019-04-29T20:34:31.897Z,10.87
2019-04-29T20:36:43.322Z,11.23
2019-04-29T20:38:55.714Z,10.10
2019-04-29T20:41:08.321Z,12.10
2019-04-29T20:43:24.952Z,10.43
2019-04-29T20:45:32.825Z,10.27
2019-04-29T20:47:45.558Z,11.37
2019-04-29T20:49:56.754Z,10.57
2019-04-29T20:52:13.439Z,13.47
2019-04-29T20:54:30.043Z,11.70
2019-04-29T20:56:41.139Z,10.77
2019-04-29T20:58:52.375Z,14.63
2019-04-29T21:01:10.768Z,11.33
2019-04-29T21:03:27.670Z,14.77
2019-04-29T21:05:31.350Z,13.27
2019-04-29T21:07:42.459Z,14.10
2019-04-29T21:09:53.336Z,12.03
2019-04-29T21:12:08.878Z,15.33
2019-04-29T21:14:27.094Z,14.53
2019-04-29T21:16:39.307Z,13.40
2019-04-29T21:18:53.054Z,14.00
2019-04-29T21:21:07.826Z,15.10
2019-04-29T21:23:17.875Z,13.10
2019-04-29T21:25:29.415Z,13.13
2019-04-29T21:27:41.617Z,14.57
2019-04-29T21:29:54.060Z,11.50
2019-04-29T21:32:05.890Z,14.13
2019-04-29T21:34:17.734Z,15.23
2019-04-29T21:36:45.841Z,15.17
2019-04-29T21:39:01.679Z,17.23
2019-04-29T21:41:15.568Z,18.03
2019-04-29T21:43:28.031Z,18.63
2019-04-29T21:45:39.822Z,15.90
2019-04-29T21:47:54.580Z,20.57
2019-04-29T21:50:05.814Z,16.87
2019-04-29T21:52:19.615Z,20.70
2019-04-29T21:54:29.550Z,19.40
2019-04-29T21:56:46.514Z,18.20
2019-04-29T21:58:53.918Z,20.40
2019-04-29T22:01:06.805Z,20.97
2019-04-29T22:03:19.705Z,20.43
2019-04-29T22:05:30.958Z,21.43
2019-04-29T22:07:45.901Z,23.60
2019-04-29T22:09:55.639Z,23.70
2019-04-29T22:12:06.766Z,24.00
2019-04-29T22:14:18.050Z,24.73
2019-04-29T22:16:29.230Z,23.83
2019-04-29T22:18:40.073Z,26.97
2019-04-29T22:20:50.951Z,23.13
2019-04-29T22:23:08.403Z,22.43
2019-04-29T22:25:15.749Z,24.50
2019-04-29T22:27:27.293Z,24.87
2019-04-29T22:29:39.316Z,27.67
2019-04-29T22:31:50.408Z,32.83
2019-04-29T22:34:01.246Z,27.20
2019-04-29T22:36:14.785Z,27.33
2019-04-29T22:38:25.194Z,27.23
2019-04-29T22:40:41.017Z,27.57
2019-04-29T22:42:53.486Z,27.30
2019-04-29T22:45:05.666Z,22.73
2019-04-29T22:47:23.244Z,26.70
2019-04-29T22:49:29.443Z,26.73
2019-04-29T22:51:40.410Z,25.90
2019-04-29T22:53:51.258Z,27.60
2019-04-29T22:56:02.204Z,28.93
2019-04-29T22:58:14.965Z,28.53
2019-04-29T23:00:32.687Z,26.80
2019-04-29T23:02:40.653Z,27.53
2019-04-29T23:04:53.689Z,27.40
2019-04-29T23:07:04.342Z,26.73
2019-04-29T23:09:15.218Z,29.80
2019-04-29T23:11:26.056Z,29.23
2019-04-29T23:13:38.059Z,30.80
2019-04-29T23:15:49.098Z,32.27
2019-04-29T23:18:00.061Z,29.33
2019-04-29T23:20:28.951Z,27.30
2019-04-29T23:22:41.889Z,30.40
2019-04-29T23:24:55.731Z,33.00
2019-04-29T23:27:06.892Z,31.20
2019-04-29T23:29:17.852Z,31.77
2019-04-29T23:31:28.695Z,31.77
2019-04-29T23:33:39.566Z,33.43
2019-04-29T23:35:50.551Z,31.57
2019-04-29T23:38:04.426Z,30.97
2019-04-29T23:40:14.700Z,32.27
2019-04-29T23:42:26.079Z,33.77
2019-04-29T23:44:37.865Z,32.03
2019-04-29T23:46:49.833Z,36.90
2019-04-29T23:49:03.126Z,34.10
2019-04-29T23:51:15.309Z,34.30
2019-04-29T23:53:26.696Z,34.70
2019-04-29T23:55:37.744Z,39.73
2019-04-29T23:57:50.521Z,35.53
